MDT,Max TemperatureF,Mean TemperatureF,Min TemperatureF,Max Dew PointF,MeanDew PointF,Min DewpointF,Max Humidity, Mean Humidity, Min Humidity, Max Sea Level PressureIn, Mean Sea Level PressureIn, Min Sea Level PressureIn, Max VisibilityMiles, Mean VisibilityMiles, Min VisibilityMiles, Max Wind SpeedMPH, Mean Wind SpeedMPH, Max Gust SpeedMPH,PrecipitationIn, CloudCover, Events, WindDirDegrees
2011-10-1,84,70,56,41,37,33,43,30,17,30.24,30.01,29.94,10,10,10,18,11,24,0.00,1,,125
2011-10-2,80,68,55,43,39,37,51,36,21,30.23,30.06,29.96,10,10,10,18,10,23,T,1,,109
2011-10-3,79,67,55,45,43,41,61,45,29,30.21,29.99,29.89,10,10,10,16,8,21,T,3,,132
2011-10-4,64,59,54,54,49,44,89,69,48,30.04,29.91,29.82,10,10,6,29,14,35,0.27,7,Rain,108
2011-10-5,64,58,51,49,44,38,83,61,39,29.83,29.70,29.49,10,10,10,31,17,38,T,6,Rain,150
2011-10-6,59,49,38,43,38,33,89,71,52,29.87,29.62,29.41,10,10,6,35,15,44,0.10,6,Rain,95
2011-10-7,57,45,32,34,30,25,96,63,30,30.03,29.96,29.87,10,10,9,14,5,18,0.00,1,,45
2011-10-8,54,44,33,37,34,29,85,70,54,30.14,30.07,29.92,10,10,10,14,4,17,0.00,6,,317
2011-10-9,60,47,34,34,31,28,89,61,33,30.15,30.08,30.01,10,10,10,15,3,20,0.00,1,,21
2011-10-10,65,49,33,39,31,29,82,55,28,30.12,29.99,29.88,10,10,10,16,5,20,T,1,Rain,69
2011-10-11,71,59,47,42,38,33,80,53,26,30.01,29.91,29.82,10,10,10,18,7,24,T,5,Rain,61
2011-10-12,71,56,40,39,32,19,79,47,15,30.18,30.09,29.99,10,10,10,10,3,13,0.00,0,,110
2011-10-13,72,56,39,29,27,22,59,38,16,30.22,30.06,29.94,10,10,10,14,6,17,0.00,0,,125
2011-10-14,76,60,44,33,29,26,58,38,18,30.13,30.01,29.92,10,10,9,15,6,16,0.00,0,,96
2011-10-15,80,64,47,35,32,30,54,36,17,30.18,30.00,29.88,10,10,10,16,6,21,0.00,0,,108
2011-10-16,80,64,48,34,30,24,54,34,13,30.09,29.92,29.79,10,10,2,21,7,22,0.00,0,,108
2011-10-17,67,55,43,46,31,24,77,50,22,30.17,30.03,29.77,10,10,10,25,9,35,0.02,2,Rain,340
2011-10-18,65,51,36,29,23,16,64,42,19,30.40,30.25,30.19,10,10,10,14,4,18,0.00,0,,110
2011-10-19,67,52,36,23,20,15,52,33,14,30.24,30.07,29.91,10,10,10,15,7,17,0.00,0,,119
2011-10-20,71,54,37,28,23,17,48,33,18,30.19,30.06,29.97,10,10,10,12,5,13,0.00,0,,86
2011-10-21,72,56,40,28,25,23,51,34,16,30.27,30.11,30.04,10,10,10,14,7,18,0.00,0,,95
2011-10-22,71,55,38,29,26,23,54,37,19,30.26,30.14,30.09,10,10,10,12,5,16,0.00,0,,67
2011-10-23,72,56,39,28,26,23,54,37,19,30.30,30.14,30.05,10,10,10,14,6,15,0.00,0,,111
2011-10-24,73,57,40,26,24,21,51,34,17,30.12,29.99,29.85,10,10,10,14,7,18,0.00,0,,123
2011-10-25,64,55,45,48,36,22,86,56,25,30.02,29.90,29.80,10,9,2,33,10,41,0.35,6,Rain-Thunderstorm,113
2011-10-26,47,40,32,43,36,21,100,74,48,30.13,30.01,29.91,10,9,5,14,7,18,0.23,7,Rain,315
2011-10-27,51,40,29,33,25,17,78,53,27,30.23,30.18,30.12,10,10,10,12,2,15,0.00,0,,78
2011-10-28,55,43,30,32,26,20,85,56,26,30.40,30.30,30.23,10,10,10,13,4,14,0.00,0,,107
2011-10-29,52,41,29,30,27,24,85,61,36,30.30,30.24,30.16,10,10,10,14,4,16,0.00,0,,51
2011-10-30,60,44,28,32,28,25,92,60,28,30.36,30.27,30.20,10,10,10,10,4,13,0.00,0,,97
2011-10-31,62,46,30,34,29,26,85,56,27,30.23,30.13,30.01,10,10,10,12,4,14,0.00,0,,98